RYR55MM LIRP-EGSS
Flight info
| Callsign | RYR55MM |
|---|---|
| Flight time | 1h 48m |
| Altitude | 38000 |
| Route | SPEZI DCT LUKIM DCT AOSTA DCT ORSUD DCT MOLUS DCT IBODI DCT GOTED DCT TRO DCT CLM DCT KOPOR DCT SOSUN DCT SUBIP UM733 BANVA |
| Aircraft | B38M/M-SDE1FGHILORVWXY/HB1 |
Departure
| Time | 2026-04-21 12:17 |
|---|---|
| Airport | Pisa International Airport (LIRP) |
Arrival
| Time | 2026-04-21 14:06 |
|---|---|
| Airport | London Stansted Airport (EGSS) |
| Time | Latitude | Longitude | Altitude | Speed | Heading |
|---|---|---|---|---|---|
| 2026-04-21 11:48 | 43.69746 | 10.40030 | 11 ft | 0 kts | 9° |
| 2026-04-21 12:09 | 43.69740 | 10.40028 | 11 ft | 2 kts | 9° |
| 2026-04-21 12:09 | 43.69725 | 10.40024 | 11 ft | 2 kts | 9° |
| 2026-04-21 12:10 | 43.69710 | 10.40021 | 11 ft | 2 kts | 9° |
| 2026-04-21 12:10 | 43.69695 | 10.40015 | 11 ft | 2 kts | 42° |
| 2026-04-21 12:10 | 43.69687 | 10.39996 | 11 ft | 2 kts | 80° |
| 2026-04-21 12:10 | 43.69687 | 10.39985 | 11 ft | 1 kts | 101° |
| 2026-04-21 12:11 | 43.69688 | 10.39977 | 11 ft | 0 kts | 100° |
| 2026-04-21 12:12 | 43.69688 | 10.39978 | 11 ft | 1 kts | 101° |
| 2026-04-21 12:13 | 43.69671 | 10.40031 | 11 ft | 8 kts | 139° |
| 2026-04-21 12:13 | 43.69574 | 10.40067 | 9 ft | 22 kts | 174° |
| 2026-04-21 12:13 | 43.69376 | 10.40099 | 7 ft | 30 kts | 185° |
| 2026-04-21 12:13 | 43.69193 | 10.39929 | 7 ft | 33 kts | 217° |
| 2026-04-21 12:14 | 43.69003 | 10.39735 | 7 ft | 34 kts | 219° |
| 2026-04-21 12:14 | 43.68809 | 10.39531 | 8 ft | 34 kts | 214° |
| 2026-04-21 12:14 | 43.68608 | 10.39335 | 7 ft | 36 kts | 216° |
| 2026-04-21 12:14 | 43.68396 | 10.39108 | 7 ft | 38 kts | 216° |
| 2026-04-21 12:15 | 43.68174 | 10.38886 | 4 ft | 40 kts | 215° |
| 2026-04-21 12:15 | 43.67942 | 10.38655 | 4 ft | 40 kts | 217° |
| 2026-04-21 12:15 | 43.67727 | 10.38427 | 4 ft | 24 kts | 216° |
| 2026-04-21 12:15 | 43.67589 | 10.38287 | 3 ft | 25 kts | 219° |
| 2026-04-21 12:16 | 43.67438 | 10.38131 | 1 ft | 25 kts | 208° |
| 2026-04-21 12:16 | 43.67338 | 10.38198 | 1 ft | 16 kts | 122° |
| 2026-04-21 12:16 | 43.67307 | 10.38332 | 1 ft | 11 kts | 47° |
| 2026-04-21 12:16 | 43.67341 | 10.38360 | 1 ft | 4 kts | 34° |
| 2026-04-21 12:17 | 43.67394 | 10.38413 | 2 ft | 33 kts | 36° |
| 2026-04-21 12:17 | 43.67841 | 10.38870 | 4 ft | 124 kts | 36° |
| 2026-04-21 12:17 | 43.68672 | 10.39716 | 490 ft | 154 kts | 35° |
| 2026-04-21 12:17 | 43.69526 | 10.40542 | 1247 ft | 167 kts | 33° |
| 2026-04-21 12:18 | 43.70527 | 10.41480 | 1891 ft | 184 kts | 34° |
| 2026-04-21 12:18 | 43.71616 | 10.42509 | 2591 ft | 195 kts | 28° |
| 2026-04-21 12:18 | 43.72939 | 10.42919 | 3260 ft | 204 kts | 351° |
| 2026-04-21 12:18 | 43.74242 | 10.42011 | 3778 ft | 221 kts | 322° |
| 2026-04-21 12:19 | 43.75429 | 10.40472 | 4489 ft | 238 kts | 315° |
| 2026-04-21 12:19 | 43.76548 | 10.38890 | 5814 ft | 233 kts | 314° |
| 2026-04-21 12:19 | 43.77717 | 10.37231 | 6680 ft | 248 kts | 314° |
| 2026-04-21 12:19 | 43.78934 | 10.35501 | 7660 ft | 256 kts | 313° |
| 2026-04-21 12:20 | 43.80179 | 10.33733 | 8753 ft | 259 kts | 312° |
| 2026-04-21 12:20 | 43.81434 | 10.31947 | 9780 ft | 263 kts | 311° |
| 2026-04-21 12:20 | 43.82751 | 10.30070 | 10520 ft | 279 kts | 310° |
| 2026-04-21 12:20 | 43.84161 | 10.28052 | 11055 ft | 300 kts | 310° |
| 2026-04-21 12:21 | 43.85619 | 10.25971 | 11969 ft | 307 kts | 309° |
| 2026-04-21 12:21 | 43.87111 | 10.23842 | 13068 ft | 310 kts | 309° |
| 2026-04-21 12:21 | 43.88607 | 10.21711 | 14372 ft | 307 kts | 309° |
| 2026-04-21 12:21 | 43.90074 | 10.19620 | 15680 ft | 305 kts | 310° |
| 2026-04-21 12:22 | 43.91540 | 10.17528 | 16978 ft | 302 kts | 310° |
| 2026-04-21 12:22 | 43.92999 | 10.15444 | 18197 ft | 301 kts | 311° |
| 2026-04-21 12:22 | 43.94461 | 10.13349 | 19352 ft | 301 kts | 313° |
| 2026-04-21 12:22 | 43.95930 | 10.11244 | 20447 ft | 302 kts | 314° |
| 2026-04-21 12:23 | 43.97389 | 10.09150 | 21468 ft | 304 kts | 315° |
| 2026-04-21 12:23 | 43.98875 | 10.07015 | 22433 ft | 306 kts | 316° |
| 2026-04-21 12:23 | 44.00364 | 10.04875 | 23330 ft | 309 kts | 317° |
| 2026-04-21 12:23 | 44.01889 | 10.02683 | 24181 ft | 313 kts | 319° |
| 2026-04-21 12:24 | 44.03408 | 10.00497 | 24969 ft | 318 kts | 320° |
| 2026-04-21 12:24 | 44.04975 | 9.98243 | 25723 ft | 323 kts | 321° |
| 2026-04-21 12:24 | 44.06564 | 9.95958 | 26433 ft | 328 kts | 322° |
| 2026-04-21 12:24 | 44.08164 | 9.93655 | 27097 ft | 334 kts | 323° |
| 2026-04-21 12:25 | 44.09802 | 9.91297 | 27731 ft | 340 kts | 324° |
| 2026-04-21 12:25 | 44.11467 | 9.88900 | 28360 ft | 346 kts | 325° |
| 2026-04-21 12:25 | 44.13175 | 9.86441 | 28963 ft | 353 kts | 326° |
| 2026-04-21 12:25 | 44.14933 | 9.83909 | 29544 ft | 361 kts | 326° |
| 2026-04-21 12:26 | 44.16713 | 9.81344 | 30096 ft | 368 kts | 327° |
| 2026-04-21 12:26 | 44.18513 | 9.78749 | 30620 ft | 376 kts | 328° |
| 2026-04-21 12:26 | 44.20359 | 9.76085 | 31161 ft | 383 kts | 328° |
| 2026-04-21 12:26 | 44.22245 | 9.73356 | 31756 ft | 388 kts | 329° |
| 2026-04-21 12:27 | 44.24152 | 9.70595 | 32344 ft | 393 kts | 329° |
| 2026-04-21 12:27 | 44.26077 | 9.67804 | 32911 ft | 398 kts | 330° |
| 2026-04-21 12:27 | 44.28009 | 9.65000 | 33450 ft | 403 kts | 330° |
| 2026-04-21 12:27 | 44.29977 | 9.62143 | 33969 ft | 408 kts | 331° |
| 2026-04-21 12:28 | 44.31967 | 9.59247 | 34584 ft | 411 kts | 331° |
| 2026-04-21 12:28 | 44.33951 | 9.56343 | 35342 ft | 409 kts | 331° |
| 2026-04-21 12:28 | 44.35918 | 9.53458 | 36061 ft | 407 kts | 331° |
| 2026-04-21 12:28 | 44.37882 | 9.50579 | 36723 ft | 406 kts | 331° |
| 2026-04-21 12:29 | 44.39843 | 9.47702 | 37329 ft | 406 kts | 331° |
| 2026-04-21 12:29 | 44.41807 | 9.44820 | 37910 ft | 405 kts | 331° |
| 2026-04-21 12:29 | 44.43803 | 9.41901 | 38075 ft | 414 kts | 331° |
| 2026-04-21 12:30 | 44.47860 | 9.35962 | 38084 ft | 419 kts | 330° |
| 2026-04-21 12:30 | 44.51917 | 9.29981 | 38069 ft | 420 kts | 330° |
| 2026-04-21 12:31 | 44.55994 | 9.23948 | 38068 ft | 420 kts | 330° |
| 2026-04-21 12:31 | 44.60047 | 9.17939 | 38068 ft | 420 kts | 330° |
| 2026-04-21 12:32 | 44.64108 | 9.11906 | 38068 ft | 420 kts | 330° |
| 2026-04-21 12:32 | 44.68160 | 9.05875 | 38068 ft | 420 kts | 330° |
| 2026-04-21 12:33 | 44.72219 | 8.99820 | 38068 ft | 420 kts | 330° |
| 2026-04-21 12:33 | 44.76239 | 8.93810 | 38068 ft | 420 kts | 330° |
| 2026-04-21 12:34 | 44.80286 | 8.87750 | 38068 ft | 420 kts | 330° |
| 2026-04-21 12:34 | 44.84330 | 8.81681 | 38068 ft | 420 kts | 330° |
| 2026-04-21 12:35 | 44.88357 | 8.75625 | 38068 ft | 420 kts | 330° |
| 2026-04-21 12:35 | 44.92370 | 8.69577 | 38068 ft | 420 kts | 330° |
| 2026-04-21 12:36 | 44.96413 | 8.63471 | 38068 ft | 420 kts | 330° |
| 2026-04-21 12:36 | 45.00426 | 8.57399 | 38068 ft | 420 kts | 330° |
| 2026-04-21 12:37 | 45.04456 | 8.51289 | 38068 ft | 420 kts | 330° |
| 2026-04-21 12:37 | 45.08460 | 8.45203 | 38068 ft | 420 kts | 330° |
| 2026-04-21 12:38 | 45.12453 | 8.39123 | 38092 ft | 420 kts | 330° |
| 2026-04-21 12:38 | 45.16454 | 8.33016 | 38078 ft | 421 kts | 329° |
| 2026-04-21 12:39 | 45.20478 | 8.26850 | 38077 ft | 421 kts | 329° |
| 2026-04-21 12:39 | 45.24488 | 8.20688 | 38077 ft | 421 kts | 329° |
| 2026-04-21 12:40 | 45.28493 | 8.14522 | 38077 ft | 421 kts | 329° |
| 2026-04-21 12:40 | 45.32468 | 8.08390 | 38077 ft | 421 kts | 329° |
| 2026-04-21 12:41 | 45.35604 | 8.03544 | 38076 ft | 421 kts | 329° |
| 2026-04-21 12:41 | 45.39589 | 7.97372 | 38077 ft | 421 kts | 329° |
| 2026-04-21 12:42 | 45.43570 | 7.91196 | 38077 ft | 421 kts | 329° |
| 2026-04-21 12:42 | 45.47540 | 7.85022 | 38077 ft | 421 kts | 329° |
| 2026-04-21 12:43 | 45.51503 | 7.78847 | 38077 ft | 421 kts | 329° |
| 2026-04-21 12:43 | 45.55470 | 7.72652 | 38077 ft | 421 kts | 329° |
| 2026-04-21 12:44 | 45.59401 | 7.66501 | 38077 ft | 421 kts | 329° |
| 2026-04-21 12:44 | 45.63387 | 7.60249 | 38077 ft | 421 kts | 329° |
| 2026-04-21 12:45 | 45.67356 | 7.54008 | 38077 ft | 421 kts | 329° |
| 2026-04-21 12:45 | 45.71300 | 7.47792 | 38077 ft | 421 kts | 329° |
| 2026-04-21 12:46 | 45.75229 | 7.41584 | 38076 ft | 421 kts | 329° |
| 2026-04-21 12:46 | 45.79166 | 7.35430 | 38075 ft | 412 kts | 334° |
| 2026-04-21 12:46 | 45.81163 | 7.33024 | 38069 ft | 399 kts | 339° |
| 2026-04-21 12:47 | 45.83465 | 7.30621 | 38061 ft | 396 kts | 341° |
| 2026-04-21 12:47 | 45.87965 | 7.26051 | 38060 ft | 395 kts | 341° |
| 2026-04-21 12:48 | 45.92449 | 7.21495 | 38060 ft | 395 kts | 341° |
| 2026-04-21 12:48 | 45.96985 | 7.16874 | 38059 ft | 395 kts | 341° |
| 2026-04-21 12:49 | 46.01463 | 7.12298 | 38059 ft | 395 kts | 341° |
| 2026-04-21 12:49 | 46.05973 | 7.07678 | 38058 ft | 395 kts | 341° |
| 2026-04-21 12:50 | 46.10479 | 7.03053 | 38064 ft | 395 kts | 341° |
| 2026-04-21 12:50 | 46.14928 | 6.98477 | 38083 ft | 396 kts | 341° |
| 2026-04-21 12:51 | 46.19412 | 6.93854 | 38083 ft | 395 kts | 341° |
| 2026-04-21 12:51 | 46.23929 | 6.89189 | 38082 ft | 395 kts | 341° |
| 2026-04-21 12:52 | 46.28432 | 6.84528 | 38082 ft | 395 kts | 341° |
| 2026-04-21 12:52 | 46.32907 | 6.79887 | 38081 ft | 395 kts | 341° |
| 2026-04-21 12:53 | 46.37427 | 6.75190 | 38081 ft | 395 kts | 341° |
| 2026-04-21 12:53 | 46.41893 | 6.70541 | 38080 ft | 395 kts | 341° |
| 2026-04-21 12:54 | 46.46243 | 6.65311 | 38085 ft | 415 kts | 332° |
| 2026-04-21 12:54 | 46.50275 | 6.59220 | 38080 ft | 417 kts | 330° |
| 2026-04-21 12:55 | 46.54330 | 6.53063 | 38080 ft | 417 kts | 331° |
| 2026-04-21 12:55 | 46.58375 | 6.46913 | 38080 ft | 417 kts | 331° |
| 2026-04-21 12:56 | 46.62393 | 6.40797 | 38080 ft | 417 kts | 331° |
| 2026-04-21 12:56 | 46.66403 | 6.34680 | 38078 ft | 417 kts | 330° |
| 2026-04-21 12:57 | 46.70449 | 6.28488 | 38064 ft | 419 kts | 330° |
| 2026-04-21 12:57 | 46.74463 | 6.22326 | 38064 ft | 418 kts | 330° |
| 2026-04-21 12:58 | 46.78498 | 6.16120 | 38064 ft | 418 kts | 330° |
| 2026-04-21 12:58 | 46.82533 | 6.09904 | 38064 ft | 418 kts | 330° |
| 2026-04-21 12:59 | 46.86562 | 6.03684 | 38064 ft | 418 kts | 330° |
| 2026-04-21 12:59 | 46.90590 | 5.97453 | 38064 ft | 418 kts | 330° |
| 2026-04-21 13:00 | 46.94662 | 5.91397 | 38066 ft | 404 kts | 336° |
| 2026-04-21 13:00 | 46.96915 | 5.88957 | 38068 ft | 389 kts | 344° |
| 2026-04-21 13:00 | 46.99217 | 5.87015 | 38066 ft | 381 kts | 347° |
| 2026-04-21 13:01 | 47.03935 | 5.83374 | 38063 ft | 379 kts | 348° |
| 2026-04-21 13:01 | 47.08643 | 5.79760 | 38062 ft | 379 kts | 348° |
| 2026-04-21 13:02 | 47.13353 | 5.76138 | 38086 ft | 380 kts | 348° |
| 2026-04-21 13:02 | 47.20378 | 5.70719 | 38086 ft | 379 kts | 348° |
| 2026-04-21 13:03 | 47.25097 | 5.67070 | 38085 ft | 379 kts | 348° |
| 2026-04-21 13:03 | 47.29786 | 5.63436 | 38085 ft | 379 kts | 348° |
| 2026-04-21 13:04 | 47.34468 | 5.59802 | 38084 ft | 379 kts | 348° |
| 2026-04-21 13:04 | 47.39195 | 5.56126 | 38083 ft | 379 kts | 348° |
| 2026-04-21 13:05 | 47.43880 | 5.52475 | 38083 ft | 379 kts | 348° |
| 2026-04-21 13:05 | 47.47862 | 5.49367 | 38082 ft | 379 kts | 348° |
| 2026-04-21 13:06 | 47.52674 | 5.44613 | 38089 ft | 410 kts | 333° |
| 2026-04-21 13:06 | 47.54629 | 5.41404 | 38088 ft | 427 kts | 326° |
| 2026-04-21 13:06 | 47.56462 | 5.37859 | 38082 ft | 432 kts | 324° |
| 2026-04-21 13:07 | 47.60039 | 5.30683 | 38068 ft | 434 kts | 323° |
| 2026-04-21 13:07 | 47.63634 | 5.23424 | 38067 ft | 434 kts | 323° |
| 2026-04-21 13:08 | 47.67211 | 5.16184 | 38067 ft | 434 kts | 323° |
| 2026-04-21 13:08 | 47.70808 | 5.08889 | 38067 ft | 434 kts | 323° |
| 2026-04-21 13:09 | 47.74416 | 5.01553 | 38067 ft | 434 kts | 323° |
| 2026-04-21 13:09 | 47.77988 | 4.94271 | 38067 ft | 434 kts | 323° |
| 2026-04-21 13:10 | 47.81573 | 4.86944 | 38068 ft | 434 kts | 323° |
| 2026-04-21 13:10 | 47.85162 | 4.79592 | 38068 ft | 434 kts | 323° |
| 2026-04-21 13:11 | 47.88724 | 4.72276 | 38068 ft | 434 kts | 323° |
| 2026-04-21 13:11 | 47.92286 | 4.64940 | 38068 ft | 434 kts | 323° |
| 2026-04-21 13:12 | 47.95869 | 4.57544 | 38068 ft | 434 kts | 323° |
| 2026-04-21 13:12 | 47.99422 | 4.50190 | 38068 ft | 433 kts | 323° |
| 2026-04-21 13:13 | 48.02982 | 4.42801 | 38069 ft | 433 kts | 323° |
| 2026-04-21 13:13 | 48.06517 | 4.35447 | 38069 ft | 433 kts | 323° |
| 2026-04-21 13:14 | 48.10028 | 4.28120 | 38054 ft | 435 kts | 322° |
| 2026-04-21 13:14 | 48.13537 | 4.20770 | 38080 ft | 435 kts | 322° |
| 2026-04-21 13:15 | 48.17072 | 4.13342 | 38080 ft | 435 kts | 322° |
| 2026-04-21 13:15 | 48.20598 | 4.05918 | 38081 ft | 435 kts | 322° |
| 2026-04-21 13:16 | 48.24139 | 3.98442 | 38081 ft | 435 kts | 322° |
| 2026-04-21 13:16 | 48.25986 | 3.94814 | 38084 ft | 424 kts | 327° |
| 2026-04-21 13:16 | 48.27944 | 3.91456 | 38081 ft | 420 kts | 328° |
| 2026-04-21 13:17 | 48.31843 | 3.84952 | 38081 ft | 420 kts | 329° |
| 2026-04-21 13:17 | 48.35755 | 3.78413 | 38081 ft | 420 kts | 329° |
| 2026-04-21 13:18 | 48.39687 | 3.71812 | 38081 ft | 420 kts | 329° |
| 2026-04-21 13:18 | 48.43652 | 3.65259 | 38081 ft | 415 kts | 330° |
| 2026-04-21 13:19 | 48.47700 | 3.58936 | 38080 ft | 415 kts | 331° |
| 2026-04-21 13:19 | 48.51749 | 3.52595 | 38080 ft | 415 kts | 331° |
| 2026-04-21 13:20 | 48.55756 | 3.46291 | 38080 ft | 415 kts | 331° |
| 2026-04-21 13:20 | 48.59801 | 3.39906 | 38080 ft | 415 kts | 331° |
| 2026-04-21 13:21 | 48.63795 | 3.33586 | 38070 ft | 416 kts | 330° |
| 2026-04-21 13:21 | 48.67873 | 3.27217 | 38065 ft | 415 kts | 331° |
| 2026-04-21 13:22 | 48.71932 | 3.20914 | 38065 ft | 415 kts | 331° |
| 2026-04-21 13:22 | 48.75958 | 3.14653 | 38065 ft | 415 kts | 331° |
| 2026-04-21 13:23 | 48.80013 | 3.08335 | 38065 ft | 415 kts | 331° |
| 2026-04-21 13:23 | 48.84101 | 3.02188 | 38066 ft | 400 kts | 338° |
| 2026-04-21 13:24 | 48.86334 | 2.99823 | 38071 ft | 386 kts | 344° |
| 2026-04-21 13:24 | 48.88646 | 2.97738 | 38065 ft | 383 kts | 346° |
| 2026-04-21 13:24 | 48.93299 | 2.93664 | 38064 ft | 382 kts | 346° |
| 2026-04-21 13:25 | 48.97905 | 2.89633 | 38063 ft | 382 kts | 346° |
| 2026-04-21 13:25 | 49.02545 | 2.85565 | 38062 ft | 382 kts | 346° |
| 2026-04-21 13:26 | 49.07164 | 2.81506 | 38062 ft | 382 kts | 346° |
| 2026-04-21 13:26 | 49.11779 | 2.77443 | 38086 ft | 382 kts | 346° |
| 2026-04-21 13:27 | 49.16386 | 2.73381 | 38086 ft | 382 kts | 346° |
| 2026-04-21 13:27 | 49.21024 | 2.69281 | 38086 ft | 381 kts | 346° |
| 2026-04-21 13:28 | 49.25624 | 2.65207 | 38085 ft | 382 kts | 346° |
| 2026-04-21 13:28 | 49.30275 | 2.61082 | 38085 ft | 381 kts | 346° |
| 2026-04-21 13:29 | 49.34826 | 2.56649 | 38090 ft | 400 kts | 337° |
| 2026-04-21 13:29 | 49.39031 | 2.50722 | 38084 ft | 408 kts | 333° |
| 2026-04-21 13:30 | 49.43157 | 2.44678 | 38083 ft | 408 kts | 333° |
| 2026-04-21 13:30 | 49.47300 | 2.38592 | 38083 ft | 408 kts | 333° |
| 2026-04-21 13:31 | 49.51451 | 2.32478 | 38070 ft | 410 kts | 333° |
| 2026-04-21 13:31 | 49.55585 | 2.26360 | 38068 ft | 410 kts | 333° |
| 2026-04-21 13:32 | 49.59707 | 2.20239 | 38068 ft | 410 kts | 333° |
| 2026-04-21 13:32 | 49.63857 | 2.14066 | 38068 ft | 410 kts | 333° |
| 2026-04-21 13:33 | 49.67957 | 2.07953 | 38068 ft | 410 kts | 333° |
| 2026-04-21 13:33 | 49.72100 | 2.01762 | 38068 ft | 410 kts | 333° |
| 2026-04-21 13:34 | 49.76230 | 1.95576 | 38068 ft | 410 kts | 333° |
| 2026-04-21 13:34 | 49.80354 | 1.89386 | 38067 ft | 410 kts | 333° |
| 2026-04-21 13:35 | 49.84463 | 1.83203 | 38067 ft | 410 kts | 333° |
| 2026-04-21 13:35 | 49.88589 | 1.76981 | 38067 ft | 410 kts | 333° |
| 2026-04-21 13:36 | 49.92726 | 1.70726 | 38067 ft | 410 kts | 333° |
| 2026-04-21 13:36 | 49.96848 | 1.64480 | 38067 ft | 410 kts | 333° |
| 2026-04-21 13:37 | 50.00935 | 1.58273 | 38066 ft | 410 kts | 333° |
| 2026-04-21 13:37 | 50.05065 | 1.51984 | 38066 ft | 409 kts | 333° |
| 2026-04-21 13:38 | 50.09091 | 1.45840 | 38066 ft | 409 kts | 333° |
| 2026-04-21 13:38 | 50.13173 | 1.39595 | 38091 ft | 410 kts | 333° |
| 2026-04-21 13:39 | 50.17273 | 1.33306 | 38080 ft | 410 kts | 332° |
| 2026-04-21 13:39 | 50.21368 | 1.26993 | 38078 ft | 411 kts | 332° |
| 2026-04-21 13:40 | 50.25454 | 1.20671 | 38075 ft | 408 kts | 332° |
| 2026-04-21 13:40 | 50.29512 | 1.14374 | 38078 ft | 407 kts | 332° |
| 2026-04-21 13:41 | 50.33561 | 1.08089 | 38077 ft | 407 kts | 332° |
| 2026-04-21 13:41 | 50.37628 | 1.01759 | 38077 ft | 407 kts | 332° |
| 2026-04-21 13:42 | 50.41682 | 0.95439 | 37489 ft | 410 kts | 332° |
| 2026-04-21 13:42 | 50.43693 | 0.92290 | 36778 ft | 409 kts | 332° |
| 2026-04-21 13:42 | 50.45738 | 0.89084 | 36055 ft | 407 kts | 332° |
| 2026-04-21 13:43 | 50.47727 | 0.85962 | 35327 ft | 406 kts | 332° |
| 2026-04-21 13:43 | 50.49733 | 0.82811 | 34572 ft | 405 kts | 332° |
| 2026-04-21 13:43 | 50.51727 | 0.79680 | 33809 ft | 404 kts | 332° |
| 2026-04-21 13:43 | 50.53719 | 0.76551 | 33055 ft | 402 kts | 331° |
| 2026-04-21 13:44 | 50.55758 | 0.73658 | 32287 ft | 388 kts | 335° |
| 2026-04-21 13:44 | 50.57868 | 0.71065 | 31494 ft | 381 kts | 336° |
| 2026-04-21 13:44 | 50.59982 | 0.68561 | 30730 ft | 376 kts | 335° |
| 2026-04-21 13:44 | 50.62048 | 0.66082 | 29956 ft | 371 kts | 334° |
| 2026-04-21 13:45 | 50.64083 | 0.63619 | 29374 ft | 360 kts | 333° |
| 2026-04-21 13:45 | 50.66043 | 0.61239 | 28840 ft | 350 kts | 332° |
| 2026-04-21 13:45 | 50.67958 | 0.58913 | 28304 ft | 340 kts | 331° |
| 2026-04-21 13:45 | 50.69805 | 0.56668 | 27778 ft | 331 kts | 331° |
| 2026-04-21 13:46 | 50.71622 | 0.54460 | 27248 ft | 323 kts | 330° |
| 2026-04-21 13:46 | 50.73385 | 0.52314 | 26744 ft | 315 kts | 329° |
| 2026-04-21 13:46 | 50.75111 | 0.50213 | 26256 ft | 308 kts | 328° |
| 2026-04-21 13:46 | 50.76780 | 0.48180 | 25786 ft | 306 kts | 328° |
| 2026-04-21 13:47 | 50.78541 | 0.46045 | 25294 ft | 321 kts | 327° |
| 2026-04-21 13:47 | 50.80137 | 0.44100 | 24832 ft | 315 kts | 326° |
| 2026-04-21 13:47 | 50.81914 | 0.41927 | 24310 ft | 307 kts | 325° |
| 2026-04-21 13:47 | 50.83574 | 0.39896 | 23830 ft | 299 kts | 325° |
| 2026-04-21 13:48 | 50.85204 | 0.37901 | 23369 ft | 293 kts | 324° |
| 2026-04-21 13:48 | 50.86900 | 0.35824 | 22896 ft | 312 kts | 323° |
| 2026-04-21 13:48 | 50.88512 | 0.33848 | 22437 ft | 309 kts | 322° |
| 2026-04-21 13:48 | 50.90227 | 0.31732 | 21949 ft | 301 kts | 321° |
| 2026-04-21 13:49 | 50.91859 | 0.29714 | 21469 ft | 295 kts | 321° |
| 2026-04-21 13:49 | 50.93463 | 0.27731 | 20999 ft | 291 kts | 320° |
| 2026-04-21 13:49 | 50.95087 | 0.25719 | 20547 ft | 308 kts | 320° |
| 2026-04-21 13:49 | 50.96758 | 0.23646 | 20071 ft | 306 kts | 319° |
| 2026-04-21 13:50 | 50.98420 | 0.21589 | 19597 ft | 300 kts | 319° |
| 2026-04-21 13:50 | 51.00055 | 0.19562 | 19132 ft | 295 kts | 318° |
| 2026-04-21 13:50 | 51.01653 | 0.17581 | 18676 ft | 292 kts | 318° |
| 2026-04-21 13:50 | 51.03328 | 0.15493 | 18208 ft | 310 kts | 317° |
| 2026-04-21 13:51 | 51.05030 | 0.13375 | 17718 ft | 307 kts | 317° |
| 2026-04-21 13:51 | 51.06699 | 0.11302 | 17246 ft | 302 kts | 317° |
| 2026-04-21 13:51 | 51.08333 | 0.09270 | 16782 ft | 299 kts | 317° |
| 2026-04-21 13:51 | 51.09937 | 0.07273 | 16326 ft | 296 kts | 316° |
| 2026-04-21 13:52 | 51.11571 | 0.05230 | 15874 ft | 311 kts | 316° |
| 2026-04-21 13:52 | 51.13273 | 0.03099 | 15403 ft | 312 kts | 316° |
| 2026-04-21 13:52 | 51.14970 | 0.00981 | 14936 ft | 308 kts | 316° |
| 2026-04-21 13:52 | 51.16627 | -0.01088 | 14480 ft | 305 kts | 316° |
| 2026-04-21 13:53 | 51.18297 | -0.03177 | 14020 ft | 303 kts | 316° |
| 2026-04-21 13:53 | 51.19949 | -0.05246 | 13550 ft | 302 kts | 316° |
| 2026-04-21 13:53 | 51.21595 | -0.07309 | 13082 ft | 301 kts | 316° |
| 2026-04-21 13:53 | 51.23237 | -0.09370 | 12630 ft | 303 kts | 316° |
| 2026-04-21 13:54 | 51.24942 | -0.11521 | 12165 ft | 317 kts | 317° |
| 2026-04-21 13:54 | 51.26669 | -0.13696 | 11672 ft | 316 kts | 317° |
| 2026-04-21 13:54 | 51.28404 | -0.15878 | 11177 ft | 313 kts | 317° |
| 2026-04-21 13:54 | 51.30089 | -0.17999 | 10818 ft | 306 kts | 318° |
| 2026-04-21 13:55 | 51.31714 | -0.20042 | 10682 ft | 294 kts | 318° |
| 2026-04-21 13:55 | 51.33295 | -0.22033 | 10514 ft | 285 kts | 318° |
| 2026-04-21 13:55 | 51.34828 | -0.23965 | 10343 ft | 277 kts | 318° |
| 2026-04-21 13:55 | 51.36322 | -0.25851 | 10170 ft | 271 kts | 318° |
| 2026-04-21 13:56 | 51.37786 | -0.27701 | 9981 ft | 266 kts | 318° |
| 2026-04-21 13:56 | 51.39205 | -0.29503 | 9658 ft | 267 kts | 317° |
| 2026-04-21 13:56 | 51.40254 | -0.31898 | 9488 ft | 255 kts | 288° |
| 2026-04-21 13:56 | 51.40870 | -0.34568 | 9297 ft | 254 kts | 298° |
| 2026-04-21 13:57 | 51.42009 | -0.36708 | 9060 ft | 256 kts | 319° |
| 2026-04-21 13:57 | 51.43508 | -0.38160 | 8820 ft | 259 kts | 334° |
| 2026-04-21 13:57 | 51.45285 | -0.38912 | 8570 ft | 264 kts | 350° |
| 2026-04-21 13:57 | 51.47133 | -0.38838 | 8324 ft | 268 kts | 6° |
| 2026-04-21 13:58 | 51.48917 | -0.37950 | 8079 ft | 273 kts | 21° |
| 2026-04-21 13:58 | 51.50520 | -0.36305 | 7836 ft | 278 kts | 36° |
| 2026-04-21 13:58 | 51.51900 | -0.34267 | 7595 ft | 279 kts | 40° |
| 2026-04-21 13:58 | 51.53245 | -0.32133 | 7349 ft | 279 kts | 41° |
| 2026-04-21 13:59 | 51.54608 | -0.29949 | 7099 ft | 278 kts | 41° |
| 2026-04-21 13:59 | 51.55977 | -0.27750 | 6860 ft | 277 kts | 41° |
| 2026-04-21 13:59 | 51.57335 | -0.25566 | 6597 ft | 277 kts | 41° |
| 2026-04-21 13:59 | 51.58697 | -0.23376 | 6319 ft | 277 kts | 41° |
| 2026-04-21 14:00 | 51.60063 | -0.21175 | 6032 ft | 277 kts | 41° |
| 2026-04-21 14:00 | 51.61446 | -0.19032 | 5746 ft | 276 kts | 40° |
| 2026-04-21 14:00 | 51.62766 | -0.16765 | 5446 ft | 278 kts | 45° |
| 2026-04-21 14:00 | 51.63974 | -0.14418 | 5217 ft | 276 kts | 50° |
| 2026-04-21 14:01 | 51.65119 | -0.11974 | 5108 ft | 270 kts | 50° |
| 2026-04-21 14:01 | 51.66242 | -0.09606 | 5002 ft | 263 kts | 46° |
| 2026-04-21 14:01 | 51.67523 | -0.07559 | 4903 ft | 257 kts | 39° |
| 2026-04-21 14:01 | 51.68850 | -0.05684 | 4800 ft | 253 kts | 38° |
| 2026-04-21 14:02 | 51.69727 | -0.04435 | 4731 ft | 251 kts | 39° |
| 2026-04-21 14:02 | 51.71458 | -0.01920 | 4596 ft | 249 kts | 39° |
| 2026-04-21 14:02 | 51.72744 | -0.00027 | 4363 ft | 253 kts | 40° |
| 2026-04-21 14:03 | 51.75398 | 0.03907 | 3701 ft | 263 kts | 40° |
| 2026-04-21 14:03 | 51.76755 | 0.05925 | 3334 ft | 267 kts | 41° |
| 2026-04-21 14:03 | 51.78131 | 0.07975 | 2953 ft | 263 kts | 41° |
| 2026-04-21 14:03 | 51.79485 | 0.09994 | 2587 ft | 258 kts | 41° |
| 2026-04-21 14:04 | 51.80810 | 0.11972 | 2229 ft | 252 kts | 41° |
| 2026-04-21 14:04 | 51.82058 | 0.13836 | 1895 ft | 235 kts | 41° |
| 2026-04-21 14:04 | 51.83225 | 0.15579 | 1621 ft | 214 kts | 41° |
| 2026-04-21 14:04 | 51.84266 | 0.17137 | 1299 ft | 196 kts | 41° |
| 2026-04-21 14:05 | 51.85226 | 0.18574 | 1054 ft | 173 kts | 41° |
| 2026-04-21 14:05 | 51.86061 | 0.19823 | 823 ft | 155 kts | 41° |
| 2026-04-21 14:05 | 51.86809 | 0.20944 | 640 ft | 139 kts | 42° |
| 2026-04-21 14:05 | 51.87502 | 0.21995 | 450 ft | 131 kts | 43° |
| 2026-04-21 14:06 | 51.88143 | 0.22948 | 356 ft | 120 kts | 42° |
| 2026-04-21 14:06 | 51.88599 | 0.23630 | 356 ft | 50 kts | 43° |
| 2026-04-21 14:06 | 51.88790 | 0.23930 | 356 ft | 35 kts | 54° |
| 2026-04-21 14:06 | 51.88901 | 0.24296 | 356 ft | 33 kts | 74° |
| 2026-04-21 14:07 | 51.88902 | 0.24524 | 355 ft | 19 kts | 136° |
| 2026-04-21 14:07 | 51.88820 | 0.24676 | 355 ft | 16 kts | 98° |
| 2026-04-21 14:07 | 51.88876 | 0.24815 | 355 ft | 16 kts | 45° |
| 2026-04-21 14:07 | 51.88960 | 0.24945 | 355 ft | 17 kts | 42° |
| 2026-04-21 14:08 | 51.89056 | 0.25088 | 355 ft | 19 kts | 43° |
| 2026-04-21 14:08 | 51.89149 | 0.25232 | 355 ft | 17 kts | 56° |
| 2026-04-21 14:08 | 51.89112 | 0.25394 | 355 ft | 17 kts | 134° |
| 2026-04-21 14:08 | 51.89044 | 0.25508 | 355 ft | 9 kts | 132° |
| 2026-04-21 14:09 | 51.89037 | 0.25566 | 355 ft | 5 kts | 56° |
| 2026-04-21 14:09 | 51.89065 | 0.25618 | 355 ft | 3 kts | 41° |
| 2026-04-21 14:09 | 51.89080 | 0.25640 | 355 ft | 0 kts | 41° |
| 2026-04-21 14:09 | 51.89081 | 0.25641 | 355 ft | 0 kts | 42° |